Time;durP1;ratioP1;P1;durP2;ratioP2;P2;SDS_P1;SDS_P2;PMS_P1;PMS_P2;Temp;Humidity;BMP_temperature;BMP_pressure;BME280_temperature;BME280_humidity;BME280_pressure;Samples;Min_cycle;Max_cycle;Signal;HPM_P1;HPM_P2
2022/05/12 00:01:58;;;;;;;7.95;6.68;;;;;;;-144.47;100.00;61586.06;5072270;28;20032;-85
2022/05/12 00:04:28;;;;;;;10.70;6.47;;;;;;;18.42;100.00;61586.06;5062578;28;20695;-85
2022/05/12 00:06:54;;;;;;;8.63;6.60;;;;;;;-144.47;100.00;61586.06;5070275;28;20048;-85
2022/05/12 00:09:20;;;;;;;7.40;6.38;;;;;;;-144.47;100.00;61586.06;5071163;28;20278;-85
2022/05/12 00:11:45;;;;;;;7.30;6.60;;;;;;;18.29;100.00;81386.88;5072042;28;20420;-85
2022/05/12 00:14:11;;;;;;;7.38;6.68;;;;;;;18.15;100.00;61586.06;5072456;28;20036;-85
2022/05/12 00:16:37;;;;;;;10.18;6.80;;;;;;;187.31;100.00;61586.06;5071908;28;20021;-84
2022/05/12 00:19:03;;;;;;;9.18;6.78;;;;;;;187.31;100.00;61586.06;5071779;28;20047;-85
2022/05/12 00:21:29;;;;;;;8.45;6.60;;;;;;;18.67;100.00;61586.06;5071029;28;20036;-85
2022/05/12 00:23:57;;;;;;;8.27;7.43;;;;;;;18.67;100.00;61586.06;5071045;28;20388;-85
2022/05/12 00:26:28;;;;;;;8.90;8.07;;;;;;;-144.47;100.00;61586.06;5061479;28;20090;-85
2022/05/12 00:28:55;;;;;;;;;;;;;;;-144.47;100.00;61586.06;5061437;28;20036;-86
2022/05/12 00:31:21;;;;;;;7.68;6.97;;;;;;;-144.47;100.00;61586.06;5060982;28;19916;-85
2022/05/12 00:33:47;;;;;;;7.80;7.10;;;;;;;-144.47;100.00;61586.06;5059957;28;20028;-85
2022/05/12 00:36:13;;;;;;;9.15;8.00;;;;;;;-144.47;100.00;61586.06;5068250;28;20029;-85
2022/05/12 00:38:38;;;;;;;10.05;8.20;;;;;;;-144.47;100.00;61586.06;5070983;28;20037;-85
2022/05/12 00:41:03;;;;;;;8.38;7.65;;;;;;;-144.47;100.00;61586.06;5060481;28;20037;-85
2022/05/12 00:43:38;;;;;;;10.88;8.23;;;;;;;-144.47;100.00;61586.06;5059141;28;20033;-85
2022/05/12 00:46:16;;;;;;;8.48;7.72;;;;;;;18.67;100.00;61586.06;5062398;28;20067;-85
2022/05/12 00:48:42;;;;;;;7.80;7.10;;;;;;;-144.47;100.00;61586.06;5067114;28;20153;-86
2022/05/12 00:51:10;;;;;;;8.73;7.80;;;;;;;17.72;100.00;61586.06;5059544;28;20029;-85
2022/05/12 00:53:37;;;;;;;8.38;7.10;;;;;;;17.72;100.00;61586.06;5061934;28;20056;-85
2022/05/12 00:56:08;;;;;;;10.25;7.72;;;;;;;-144.47;100.00;61586.06;5071088;28;20020;-85
2022/05/12 00:58:34;;;;;;;10.05;7.43;;;;;;;-144.47;100.00;61586.06;5060545;28;20040;-86
2022/05/12 01:01:03;;;;;;;7.90;7.15;;;;;;;18.67;100.00;61586.06;5057082;28;20128;-85
2022/05/12 01:03:29;;;;;;;8.18;7.13;;;;;;;21.26;100.00;61586.06;5069091;28;20680;-86
2022/05/12 01:05:54;;;;;;;8.88;8.07;;;;;;;184.71;100.00;61586.06;5070835;28;20024;-85
2022/05/12 01:08:21;;;;;;;9.45;7.85;;;;;;;18.67;100.00;61586.06;5071173;28;20028;-85
2022/05/12 01:10:52;;;;;;;10.00;7.80;;;;;;;187.31;100.00;61586.06;5062285;28;20361;-85
2022/05/12 01:13:18;;;;;;;7.97;7.28;;;;;;;187.31;100.00;61586.06;5062761;28;20086;-85
2022/05/12 01:15:59;;;;;;;8.18;7.47;;;;;;;-144.47;100.00;61586.06;5059288;28;20036;-86
2022/05/12 01:18:27;;;;;;;8.85;7.88;;;;;;;-144.47;100.00;61586.06;5068626;28;20029;-85
2022/05/12 01:20:53;;;;;;;9.15;7.72;;;;;;;-144.47;100.00;61586.06;5070549;28;20037;-85
2022/05/12 01:23:29;;;;;;;10.35;7.70;;;;;;;-144.47;100.00;61586.06;5071148;28;20483;-85
2022/05/12 01:26:00;;;;;;;9.23;8.30;;;;;;;17.03;100.00;61586.06;5071612;28;20039;-85
2022/05/12 01:28:27;;;;;;;8.35;7.65;;;;;;;-144.47;100.00;61586.06;5069997;28;20070;-85
2022/05/12 01:30:53;;;;;;;10.07;8.13;;;;;;;-144.47;100.00;61586.06;5069681;28;20188;-85
2022/05/12 01:33:20;;;;;;;8.32;7.55;;;;;;;-144.47;100.00;61586.06;5061838;28;20089;-85
2022/05/12 01:35:45;;;;;;;8.20;7.43;;;;;;;-144.47;100.00;61586.06;5064237;28;20028;-86
2022/05/12 01:38:13;;;;;;;9.10;8.23;;;;;;;-144.47;100.00;61586.06;5072398;28;20028;-84
2022/05/12 01:40:39;;;;;;;9.32;8.25;;;;;;;17.04;100.00;61586.06;5072739;28;20123;-84
2022/05/12 01:43:05;;;;;;;8.80;8.10;;;;;;;-144.47;100.00;61586.06;5074280;28;20024;-85
2022/05/12 01:45:31;;;;;;;8.88;8.18;;;;;;;-144.47;100.00;61586.06;5063554;28;20032;-86
2022/05/12 01:47:56;;;;;;;8.23;7.43;;;;;;;-144.47;100.00;61586.06;5063025;28;20037;-85
2022/05/12 01:50:22;;;;;;;8.90;8.05;;;;;;;-144.47;100.00;61586.06;5064387;28;20036;-84
2022/05/12 01:52:49;;;;;;;11.00;8.13;;;;;;;-144.47;100.00;61586.06;5063007;28;20036;-84
2022/05/12 01:55:17;;;;;;;9.45;8.55;;;;;;;-144.47;100.00;61586.06;5066353;28;20024;-84
2022/05/12 01:57:43;;;;;;;8.70;7.90;;;;;;;-144.47;100.00;61586.06;5070490;28;20044;-85
2022/05/12 02:00:12;;;;;;;10.40;8.50;;;;;;;-144.47;100.00;61586.06;5074132;28;20032;-84
2022/05/12 02:02:38;;;;;;;8.80;7.97;;;;;;;-144.47;100.00;61586.06;5072347;28;20434;-85
2022/05/12 02:05:05;;;;;;;8.85;8.05;;;;;;;-144.47;100.00;61586.06;5066177;28;20032;-85
2022/05/12 02:07:30;;;;;;;9.05;8.25;;;;;;;-144.47;100.00;61586.06;5074097;28;20124;-84
2022/05/12 02:09:56;;;;;;;8.20;7.40;;;;;;;-144.47;100.00;61586.06;5064474;28;20103;-85
2022/05/12 02:12:21;;;;;;;8.77;7.80;;;;;;;-144.47;100.00;61586.06;5063035;28;20028;-84
2022/05/12 02:14:47;;;;;;;10.38;7.85;;;;;;;-144.47;100.00;61586.06;5076202;28;20430;-85
2022/05/12 02:17:12;;;;;;;9.40;7.70;;;;;;;-144.47;100.00;61586.06;5076809;28;20166;-84
2022/05/12 02:19:38;;;;;;;14.05;8.57;;;;;;;-144.47;100.00;61586.06;5074185;28;20037;-85
2022/05/12 02:22:03;;;;;;;8.90;7.97;;;;;;;-144.47;100.00;61586.06;5074386;28;20082;-84
2022/05/12 02:24:29;;;;;;;15.57;7.80;;;;;;;-144.47;100.00;61586.06;5063547;28;20035;-84
2022/05/12 02:26:56;;;;;;;9.07;8.25;;;;;;;-144.47;100.00;61586.06;5064067;28;20489;-86
2022/05/12 02:29:23;;;;;;;8.05;7.22;;;;;;;-144.47;100.00;61586.06;5073739;28;20538;-85
2022/05/12 02:31:48;;;;;;;11.02;8.23;;;;;;;16.71;100.00;61586.06;5073881;28;20189;-85
2022/05/12 02:34:14;;;;;;;9.65;8.68;;;;;;;-144.47;100.00;61586.06;5074144;28;20046;-85
2022/05/12 02:36:39;;;;;;;9.68;7.97;;;;;;;-144.47;100.00;61586.06;5070542;28;20047;-84
2022/05/12 02:39:05;;;;;;;8.68;7.78;;;;;;;-144.47;100.00;61586.06;5062732;28;20028;-85
2022/05/12 02:41:32;;;;;;;8.50;7.60;;;;;;;-144.47;100.00;61586.06;5063928;28;20033;-86
2022/05/12 02:43:58;;;;;;;9.70;7.63;;;;;;;-144.47;100.00;61586.06;5073841;28;20041;-85
2022/05/12 02:46:23;;;;;;;16.02;8.52;;;;;;;-144.47;100.00;61586.06;5062946;28;20178;-84
2022/05/12 02:48:50;;;;;;;7.95;7.22;;;;;;;-144.47;100.00;61586.06;5061524;28;20477;-85
2022/05/12 02:51:16;;;;;;;8.75;7.90;;;;;;;-144.47;100.00;61586.06;5060146;28;20436;-85
2022/05/12 02:53:42;;;;;;;8.63;7.80;;;;;;;-144.47;100.00;61586.06;5069034;28;20281;-85
2022/05/12 02:56:09;;;;;;;9.00;7.75;;;;;;;-144.47;100.00;61586.06;5061979;28;20017;-85
2022/05/12 02:58:35;;;;;;;11.52;7.95;;;;;;;-144.47;100.00;61586.06;5063840;28;20439;-85
2022/05/12 03:01:00;;;;;;;9.05;8.15;;;;;;;-144.47;100.00;61586.06;5072111;28;20037;-85
2022/05/12 03:03:27;;;;;;;9.60;8.05;;;;;;;16.11;100.00;61586.06;5073565;28;20044;-85
2022/05/12 03:05:53;;;;;;;10.73;9.02;;;;;;;-144.47;100.00;61586.06;5066631;28;20472;-85
2022/05/12 03:08:20;;;;;;;8.80;8.13;;;;;;;-144.47;100.00;61586.06;5073487;28;20056;-85
2022/05/12 03:10:45;;;;;;;13.10;8.80;;;;;;;-144.47;100.00;61586.06;5065495;28;20416;-85
2022/05/12 03:13:11;;;;;;;10.27;8.43;;;;;;;-144.47;100.00;61586.06;5070078;28;20037;-85
2022/05/12 03:15:37;;;;;;;13.27;8.98;;;;;;;-144.47;100.00;61586.06;5073277;28;20039;-85
2022/05/12 03:18:03;;;;;;;9.30;8.40;;;;;;;-144.47;100.00;61586.06;5063033;28;20078;-86
2022/05/12 03:20:31;;;;;;;11.38;10.38;;;;;;;-144.47;100.00;61586.06;5061232;28;20435;-85
2022/05/12 03:22:58;;;;;;;10.05;9.10;;;;;;;-144.47;100.00;61586.06;5063412;28;20061;-85
2022/05/12 03:25:24;;;;;;;11.07;10.10;;;;;;;-144.47;100.00;61586.06;5071968;28;20070;-85
2022/05/12 03:27:49;;;;;;;12.23;10.10;;;;;;;-144.47;100.00;61586.06;5073561;28;20024;-85
2022/05/12 03:30:20;;;;;;;11.20;9.38;;;;;;;-144.47;100.00;61586.06;5065416;28;20531;-85
2022/05/12 03:32:46;;;;;;;11.63;9.15;;;;;;;-144.47;100.00;61586.06;5069865;28;20055;-86
2022/05/12 03:35:12;;;;;;;11.02;10.02;;;;;;;-144.47;100.00;61586.06;5069077;28;20484;-85
2022/05/12 03:37:39;;;;;;;10.93;9.82;;;;;;;-144.47;100.00;61586.06;5072714;28;20397;-85
2022/05/12 03:40:06;;;;;;;13.18;10.30;;;;;;;-144.47;100.00;61586.06;5071883;28;20028;-84
2022/05/12 03:42:31;;;;;;;11.68;10.10;;;;;;;-144.47;100.00;61586.06;5073257;28;20127;-85
2022/05/12 03:44:59;;;;;;;12.40;10.73;;;;;;;-144.47;100.00;61586.06;5072054;28;20151;-85
2022/05/12 03:47:33;;;;;;;10.45;9.55;;;;;;;-144.47;100.00;61586.06;5072389;28;20032;-85
2022/05/12 03:50:04;;;;;;;10.45;9.65;;;;;;;-144.47;100.00;61586.06;5072776;28;20033;-85
2022/05/12 03:52:31;;;;;;;11.27;9.27;;;;;;;-144.47;100.00;61586.06;5072513;28;20116;-85
2022/05/12 03:54:57;;;;;;;11.02;10.02;;;;;;;-144.47;100.00;61586.06;5072887;28;20032;-85
2022/05/12 03:57:25;;;;;;;11.02;9.93;;;;;;;15.61;100.00;61586.06;5072401;28;20530;-85
2022/05/12 03:59:51;;;;;;;11.65;9.32;;;;;;;-144.47;100.00;61586.06;5064263;28;20075;-85
2022/05/12 04:02:18;;;;;;;11.40;9.65;;;;;;;-144.47;100.00;61586.06;5059764;28;20040;-85
2022/05/12 04:04:46;;;;;;;10.23;9.13;;;;;;;15.36;100.00;61586.06;5068755;28;20032;-85
2022/05/12 04:07:14;;;;;;;11.00;10.00;;;;;;;-144.47;100.00;61586.06;5072526;28;20129;-85
2022/05/12 04:09:40;;;;;;;10.38;9.07;;;;;;;-144.47;100.00;61586.06;5066269;28;20400;-85
2022/05/12 04:12:09;;;;;;;9.82;8.93;;;;;;;-144.47;100.00;61586.06;5069709;28;20040;-86
2022/05/12 04:14:36;;;;;;;11.40;9.75;;;;;;;-144.47;100.00;61586.06;5059958;28;20374;-85
2022/05/12 04:17:02;;;;;;;9.90;9.00;;;;;;;-144.47;100.00;61586.06;5063363;28;20039;-85
2022/05/12 04:19:28;;;;;;;9.93;8.98;;;;;;;-144.47;100.00;61586.06;5064412;28;20029;-85
2022/05/12 04:21:54;;;;;;;10.20;9.27;;;;;;;-144.47;100.00;61586.06;5073264;28;20496;-85
2022/05/12 04:24:20;;;;;;;9.68;8.82;;;;;;;16.08;100.00;61586.06;5073263;28;20040;-85
2022/05/12 04:26:46;;;;;;;9.90;8.50;;;;;;;-144.47;100.00;61586.06;5073504;28;20089;-85
2022/05/12 04:29:12;;;;;;;11.02;9.77;;;;;;;-144.47;100.00;61586.06;5073101;28;20381;-85
2022/05/12 04:31:38;;;;;;;11.07;9.23;;;;;;;-144.47;100.00;61586.06;5071843;28;21008;-86
2022/05/12 04:36:47;;;;;;;10.15;9.00;;;;;;;-144.47;100.00;61586.06;5071916;28;20036;-86
2022/05/12 04:39:13;;;;;;;9.73;8.82;;;;;;;-144.47;100.00;61586.06;5072350;28;20031;-86
2022/05/12 04:41:39;;;;;;;10.60;9.50;;;;;;;-144.47;100.00;61586.06;5072469;28;20389;-86
2022/05/12 04:44:06;;;;;;;10.45;9.38;;;;;;;-144.47;100.00;61586.06;5064312;28;20444;-86
2022/05/12 04:46:34;;;;;;;11.52;9.10;;;;;;;-144.47;100.00;61586.06;5061422;28;20033;-86
2022/05/12 04:49:00;;;;;;;10.77;9.77;;;;;;;187.31;100.00;61586.06;5061937;28;20036;-85
2022/05/12 04:51:26;;;;;;;11.80;9.55;;;;;;;-144.47;100.00;61586.06;5070490;28;20055;-85
2022/05/12 04:53:52;;;;;;;11.20;9.20;;;;;;;-144.47;100.00;61586.06;5071762;28;20404;-85
2022/05/12 04:56:17;;;;;;;10.15;9.05;;;;;;;-144.47;100.00;61586.06;5071679;28;20056;-84
2022/05/12 04:58:43;;;;;;;10.95;9.95;;;;;;;-144.47;100.00;61586.06;5071050;28;20492;-84
2022/05/12 05:01:08;;;;;;;10.00;8.95;;;;;;;-144.47;100.00;61586.06;5059926;28;20036;-84
2022/05/12 05:03:34;;;;;;;10.07;9.05;;;;;;;-144.47;100.00;61586.06;5060681;28;20037;-84
2022/05/12 05:06:00;;;;;;;11.02;9.88;;;;;;;-144.47;100.00;61586.06;5071072;28;20079;-84
2022/05/12 05:08:26;;;;;;;10.13;9.07;;;;;;;-144.47;100.00;61586.06;5071334;28;20025;-85
2022/05/12 05:10:55;;;;;;;11.02;9.93;;;;;;;16.11;100.00;61586.06;5062845;28;20495;-85
2022/05/12 05:13:22;;;;;;;10.57;9.57;;;;;;;-144.47;100.00;61586.06;5059912;28;20032;-85
2022/05/12 05:15:50;;;;;;;10.95;10.00;;;;;;;187.31;100.00;61586.06;5072060;28;20438;-83
2022/05/12 05:18:18;;;;;;;13.40;10.93;;;;;;;-144.47;100.00;61586.06;5065003;28;20067;-80
2022/05/12 05:20:44;;;;;;;14.65;10.27;;;;;;;-144.47;100.00;61586.06;5064072;28;20024;-79
2022/05/12 05:23:11;;;;;;;13.65;10.68;;;;;;;-144.47;100.00;61586.06;5068027;28;20039;-79
2022/05/12 05:25:38;;;;;;;12.80;10.50;;;;;;;-144.47;100.00;61586.06;5069254;28;20028;-78
2022/05/12 05:28:04;;;;;;;9.85;9.02;;;;;;;-144.47;100.00;61586.06;5070272;28;20028;-78
2022/05/12 05:30:30;;;;;;;10.43;9.52;;;;;;;-144.47;100.00;61586.06;5070326;28;20479;-78
2022/05/12 05:32:55;;;;;;;10.77;9.80;;;;;;;18.67;100.00;61586.06;5070441;28;20111;-79
2022/05/12 05:35:22;;;;;;;11.38;10.13;;;;;;;-144.47;100.00;61586.06;5070186;28;20032;-81
2022/05/12 05:37:52;;;;;;;10.48;9.48;;;;;;;-144.47;100.00;61586.06;5070213;28;20124;-82
2022/05/12 05:40:20;;;;;;;10.48;9.43;;;;;;;-144.47;100.00;61586.06;5067429;28;20028;-82
2022/05/12 05:42:46;;;;;;;15.43;9.25;;;;;;;-144.47;100.00;61586.06;5071182;28;20072;-82
2022/05/12 05:45:15;;;;;;;12.35;10.10;;;;;;;187.31;100.00;61586.06;5069985;28;20035;-82
2022/05/12 05:47:46;;;;;;;11.43;10.07;;;;;;;-144.47;100.00;61586.06;5062928;28;20392;-82
2022/05/12 05:50:20;;;;;;;11.77;9.93;;;;;;;-144.47;100.00;61586.06;5070893;28;20044;-82
2022/05/12 05:55:30;;;;;;;14.43;11.35;;;;;;;-144.47;100.00;61586.06;5068268;28;20049;-81
2022/05/12 05:58:03;;;;;;;14.15;10.93;;;;;;;-144.47;100.00;61586.06;5071134;28;20049;-83
2022/05/12 06:00:31;;;;;;;12.27;11.07;;;;;;;-144.47;100.00;61586.06;5061787;28;20679;-80
2022/05/12 06:02:57;;;;;;;11.98;10.68;;;;;;;-144.47;100.00;61586.06;5065951;28;20375;-81
2022/05/12 06:05:22;;;;;;;13.20;11.23;;;;;;;18.67;100.00;61586.06;5059249;28;20044;-80
2022/05/12 06:07:48;;;;;;;12.45;11.25;;;;;;;-144.47;100.00;61586.06;5058864;28;20021;-80
2022/05/12 06:10:14;;;;;;;12.45;11.25;;;;;;;18.67;100.00;61586.06;5069045;28;20439;-80
2022/05/12 06:12:42;;;;;;;11.27;10.27;;;;;;;17.34;100.00;61586.06;5060880;28;20485;-80
2022/05/12 06:15:09;;;;;;;12.32;11.13;;;;;;;-144.47;100.00;61586.06;5070409;28;20032;-80
2022/05/12 06:17:36;;;;;;;12.57;10.80;;;;;;;-144.47;100.00;61586.06;5070112;28;20120;-80
2022/05/12 06:20:06;;;;;;;12.82;11.65;;;;;;;-144.47;100.00;61586.06;5060009;28;20024;-81
2022/05/12 06:22:32;;;;;;;13.27;11.85;;;;;;;17.59;100.00;61586.06;5067659;28;20048;-80
2022/05/12 06:24:58;;;;;;;12.15;11.05;;;;;;;-144.47;100.00;61586.06;5063333;28;20036;-81
2022/05/12 06:27:24;;;;;;;14.93;11.32;;;;;;;-144.47;100.00;61586.06;5062962;28;20393;-80
2022/05/12 06:29:49;;;;;;;14.40;12.20;;;;;;;-144.47;100.00;61586.06;5073950;28;20373;-80
2022/05/12 06:32:17;;;;;;;13.88;12.27;;;;;;;-144.47;100.00;61586.06;5074363;28;20110;-81
2022/05/12 06:34:42;;;;;;;14.13;11.95;;;;;;;-144.47;100.00;61586.06;5073299;28;20028;-81
2022/05/12 06:37:10;;;;;;;13.40;12.15;;;;;;;-144.47;100.00;61586.06;5074010;28;20062;-81
2022/05/12 06:39:35;;;;;;;18.58;13.30;;;;;;;-144.47;100.00;61586.06;5068369;28;20103;-81
2022/05/12 06:42:04;;;;;;;13.25;11.85;;;;;;;-144.47;100.00;61586.06;5072095;28;20454;-80
2022/05/12 06:44:44;;;;;;;15.57;12.05;;;;;;;-144.47;100.00;61586.06;5071346;28;20719;-80
2022/05/12 06:47:13;;;;;;;12.88;11.68;;;;;;;-144.47;100.00;61586.06;5073526;28;20609;-80
2022/05/12 06:49:39;;;;;;;16.02;11.65;;;;;;;-144.47;100.00;61586.06;5061812;28;20033;-80
2022/05/12 06:52:06;;;;;;;14.05;11.20;;;;;;;-144.47;100.00;61586.06;5069727;28;20042;-80
2022/05/12 06:54:33;;;;;;;15.13;11.10;;;;;;;-144.47;100.00;61586.06;5064085;28;20037;-80
2022/05/12 06:56:59;;;;;;;12.10;10.95;;;;;;;-144.47;100.00;61586.06;5073231;28;20067;-80
2022/05/12 06:59:28;;;;;;;12.75;10.98;;;;;;;18.67;100.00;61586.06;5072364;28;20072;-81
2022/05/12 07:01:53;;;;;;;12.18;10.50;;;;;;;-144.47;100.00;61586.06;5063655;28;20037;-80
2022/05/12 07:04:20;;;;;;;11.80;10.40;;;;;;;-144.47;100.00;61586.06;5061050;28;20139;-81
2022/05/12 07:06:46;;;;;;;11.15;9.88;;;;;;;-144.47;100.00;61586.06;5063094;28;20037;-82
2022/05/12 07:09:12;;;;;;;10.20;9.20;;;;;;;-144.47;100.00;61586.06;5070032;28;20067;-83
2022/05/12 07:11:37;;;;;;;11.43;9.23;;;;;;;-144.47;100.00;61586.06;5071641;28;20068;-83
2022/05/12 07:14:03;;;;;;;10.95;9.32;;;;;;;19.97;100.00;61586.06;5071995;28;20534;-83
2022/05/12 07:16:28;;;;;;;13.25;9.77;;;;;;;19.97;100.00;61586.06;5062546;28;20040;-81
2022/05/12 07:18:54;;;;;;;13.80;10.25;;;;;;;19.97;100.00;61586.06;5061995;28;20029;-81
2022/05/12 07:26:48;;;;;;;11.15;10.13;;;;;;;19.97;100.00;61586.06;5068803;28;20033;-82
2022/05/12 07:29:18;;;;;;;10.30;8.80;;;;;;;-144.47;100.00;61586.06;5072161;28;20078;-80
2022/05/12 07:31:44;;;;;;;10.30;8.77;;;;;;;-144.47;100.00;61586.06;5068494;28;20040;-81
2022/05/12 07:34:10;;;;;;;10.95;8.45;;;;;;;-144.47;100.00;61586.06;5071926;28;20036;-82
2022/05/12 07:36:40;;;;;;;10.88;8.40;;;;;;;-144.47;100.00;61586.06;5069565;28;20043;-82
2022/05/12 07:39:06;;;;;;;8.90;8.02;;;;;;;-144.47;100.00;61586.06;5071913;28;20065;-80
2022/05/12 07:41:32;;;;;;;10.43;8.80;;;;;;;-144.47;100.00;61586.06;5071725;28;20028;-80
2022/05/12 07:43:58;;;;;;;11.02;8.75;;;;;;;-144.47;100.00;61586.06;5062119;28;20044;-80
2022/05/12 07:46:27;;;;;;;21.17;8.55;;;;;;;19.43;100.00;61586.06;5060535;28;20029;-80
2022/05/12 07:48:53;;;;;;;10.38;8.23;;;;;;;-144.47;100.00;61586.06;5063427;28;20492;-80
2022/05/12 07:51:20;;;;;;;12.00;8.43;;;;;;;-144.47;100.00;61586.06;5064350;28;20043;-75
2022/05/12 07:53:47;;;;;;;8.57;7.55;;;;;;;-144.47;100.00;61586.06;5059762;28;20116;-76
2022/05/12 07:56:15;;;;;;;10.35;8.70;;;;;;;19.97;100.00;61586.06;5067846;28;20047;-80
2022/05/12 07:58:41;;;;;;;14.23;8.30;;;;;;;-144.47;100.00;61586.06;5071056;28;20354;-80
2022/05/12 08:01:06;;;;;;;8.82;7.88;;;;;;;-144.47;100.00;61586.06;5069971;28;20037;-78
2022/05/12 08:03:32;;;;;;;9.95;8.60;;;;;;;-144.47;100.00;61586.06;5070921;28;20139;-86
2022/05/12 08:05:59;;;;;;;12.55;8.15;;;;;;;-144.47;100.00;61586.06;5071526;28;20028;-79
2022/05/12 08:08:25;;;;;;;9.77;7.82;;;;;;;19.89;100.00;61586.06;5071201;28;20036;-78
2022/05/12 08:10:51;;;;;;;8.73;7.95;;;;;;;-144.47;100.00;61586.06;5071120;28;20043;-80
2022/05/12 08:13:17;;;;;;;8.40;7.53;;;;;;;-144.47;100.00;61586.06;5071022;28;20025;-78
2022/05/12 08:15:44;;;;;;;10.45;7.32;;;;;;;-144.47;100.00;61586.06;5068209;28;20082;-81
2022/05/12 08:18:10;;;;;;;15.98;7.72;;;;;;;-144.47;100.00;61586.06;5070900;28;20445;-79
2022/05/12 08:20:36;;;;;;;10.05;7.43;;;;;;;-144.47;100.00;61586.06;5064522;28;20146;-81
2022/05/12 08:23:02;;;;;;;8.65;7.57;;;;;;;-144.47;100.00;61586.06;5070919;28;20423;-80
2022/05/12 08:25:29;;;;;;;13.93;7.90;;;;;;;-144.47;100.00;61586.06;5070137;28;20119;-80
2022/05/12 08:27:55;;;;;;;8.65;7.68;;;;;;;-144.47;100.00;61586.06;5075252;28;20090;-77
2022/05/12 08:30:20;;;;;;;7.43;6.65;;;;;;;21.26;100.00;61586.06;5072467;28;20404;-79
2022/05/12 08:32:46;;;;;;;9.43;6.72;;;;;;;187.31;100.00;61586.06;5059416;28;20063;-79
2022/05/12 08:35:12;;;;;;;12.82;7.47;;;;;;;-144.47;100.00;61586.06;5062388;28;20039;-77
2022/05/12 08:37:38;;;;;;;10.05;7.55;;;;;;;-144.47;100.00;61586.06;5069941;28;20132;-76
2022/05/12 08:40:05;;;;;;;10.77;7.07;;;;;;;-144.47;100.00;61586.06;5075121;28;20119;-74
2022/05/12 08:42:41;;;;;;;9.65;8.00;;;;;;;21.26;100.00;61586.06;5074525;28;20032;-78
2022/05/12 08:45:09;;;;;;;9.40;6.72;;;;;;;20.88;100.00;81733.41;5073454;28;21191;-77
2022/05/12 08:47:47;;;;;;;7.80;6.93;;;;;;;187.31;100.00;61586.06;5071780;28;20032;-79
2022/05/12 08:50:23;;;;;;;9.18;7.40;;;;;;;187.31;100.00;61586.06;5075494;28;20445;-78
2022/05/12 08:53:05;;;;;;;12.25;6.50;;;;;;;187.31;100.00;61586.06;5076809;28;20461;-84
2022/05/12 08:55:43;;;;;;;9.55;5.93;;;;;;;187.31;100.00;61586.06;5070884;28;20365;-87
2022/05/12 08:58:18;;;;;;;9.45;6.32;;;;;;;187.31;100.00;61586.06;5070801;28;20055;-85
2022/05/12 09:00:52;;;;;;;11.20;6.75;;;;;;;-144.47;100.00;61586.06;5069748;28;20044;-76
2022/05/12 09:03:54;;;;;;;8.73;6.40;;;;;;;-144.47;100.00;61586.06;5077027;28;20055;-75
2022/05/12 09:06:38;;;;;;;7.20;5.68;;;;;;;-144.47;100.00;61586.06;5076097;28;20119;-76
2022/05/12 09:09:28;;;;;;;7.70;5.70;;;;;;;-144.47;100.00;61586.06;5088630;28;20449;-75
2022/05/12 09:12:19;;;;;;;6.20;5.65;;;;;;;-144.47;100.00;61586.06;5077743;28;20110;-75
2022/05/12 09:14:55;;;;;;;9.27;6.53;;;;;;;-144.47;100.00;61586.06;5074886;28;20040;-75
2022/05/12 09:17:24;;;;;;;10.73;5.75;;;;;;;22.56;100.00;61586.06;5074535;28;20469;-74
2022/05/12 09:19:50;;;;;;;9.65;5.90;;;;;;;-144.47;100.00;61586.06;5076756;28;20478;-77
2022/05/12 09:22:25;;;;;;;8.13;5.18;;;;;;;-144.47;100.00;61586.06;5075759;28;20035;-75
2022/05/12 09:24:51;;;;;;;8.20;5.45;;;;;;;-144.47;100.00;61586.06;5081020;28;20036;-77
2022/05/12 09:27:17;;;;;;;9.00;6.00;;;;;;;-144.47;100.00;61586.06;5077860;28;20032;-92
2022/05/12 09:29:48;;;;;;;7.00;5.07;;;;;;;-144.47;100.00;61586.06;5071928;28;20063;-76
2022/05/12 09:32:13;;;;;;;7.53;4.80;;;;;;;-144.47;100.00;61586.06;5073575;28;20082;-75
2022/05/12 09:34:43;;;;;;;6.60;4.95;;;;;;;-144.47;100.00;61586.06;5077126;28;20119;-75
2022/05/12 09:37:21;;;;;;;9.23;4.93;;;;;;;-144.47;100.00;61586.06;5078035;28;20041;-76
2022/05/12 09:39:48;;;;;;;6.35;5.32;;;;;;;-144.47;100.00;61586.06;5075308;28;20058;-76
2022/05/12 09:42:31;;;;;;;9.95;5.10;;;;;;;-144.47;100.00;61586.06;5078237;28;20036;-76
2022/05/12 09:44:57;;;;;;;6.13;5.18;;;;;;;-144.47;100.00;61586.06;5075766;28;20041;-75
2022/05/12 09:47:23;;;;;;;9.30;4.97;;;;;;;-144.47;100.00;61586.06;5077808;28;20053;-77
2022/05/12 09:49:48;;;;;;;8.23;4.97;;;;;;;-144.47;100.00;61586.06;5077505;28;20037;-77
2022/05/12 09:52:26;;;;;;;9.05;5.55;;;;;;;-144.47;100.00;61586.06;5075862;28;20028;-78
2022/05/12 09:55:14;;;;;;;7.35;5.95;;;;;;;-144.47;100.00;61586.06;5077486;28;20036;-77
2022/05/12 09:57:55;;;;;;;7.25;4.65;;;;;;;-144.47;100.00;61586.06;5074172;28;20041;-75
2022/05/12 10:00:38;;;;;;;5.53;4.70;;;;;;;-144.47;100.00;61586.06;5077525;28;20043;-76
2022/05/12 10:09:25;;;;;;;5.70;5.05;;;;;;;-144.47;100.00;61586.06;5074199;28;20029;-76
2022/05/12 10:12:02;;;;;;;6.13;5.15;;;;;;;-144.47;100.00;61586.06;5080815;28;20032;-77
2022/05/12 10:15:07;;;;;;;8.40;4.45;;;;;;;-144.47;100.00;61586.06;5075911;28;20040;-76
2022/05/12 10:17:39;;;;;;;7.47;4.90;;;;;;;-144.47;100.00;61586.06;5075228;28;20047;-75
2022/05/12 10:20:11;;;;;;;5.38;4.85;;;;;;;-144.47;100.00;61586.06;5077275;28;20469;-74
2022/05/12 10:22:54;;;;;;;11.50;4.97;;;;;;;-144.47;100.00;61586.06;5077167;28;20067;-74
2022/05/12 10:25:28;;;;;;;5.13;4.63;;;;;;;-144.47;100.00;61586.06;5080273;28;20103;-73
2022/05/12 10:28:28;;;;;;;5.95;4.80;;;;;;;-144.47;100.00;61586.06;5072296;28;20108;-75
2022/05/12 10:31:08;;;;;;;6.13;4.80;;;;;;;-144.47;100.00;61586.06;5065696;28;20044;-76
2022/05/12 10:33:53;;;;;;;10.57;5.07;;;;;;;-144.47;100.00;61586.06;5072161;28;20037;-77
2022/05/12 10:36:47;;;;;;;6.72;4.95;;;;;;;-144.47;100.00;61586.06;5074511;28;20397;-77
2022/05/12 10:39:36;;;;;;;10.45;5.07;;;;;;;-144.47;100.00;61586.06;5063844;28;20097;-77
2022/05/12 10:42:23;;;;;;;11.25;5.05;;;;;;;-144.47;100.00;61586.06;5071406;28;20467;-79
2022/05/12 10:45:07;;;;;;;6.72;4.80;;;;;;;-144.47;100.00;61586.06;5070393;28;20048;-79
2022/05/12 10:47:53;;;;;;;10.82;5.05;;;;;;;-144.47;100.00;61586.06;5072219;28;20389;-79
2022/05/12 10:50:29;;;;;;;5.63;4.32;;;;;;;-144.47;100.00;61586.06;5069858;28;20127;-79
2022/05/12 10:53:23;;;;;;;5.47;4.97;;;;;;;-144.47;100.00;61586.06;5065009;28;20024;-79
2022/05/12 10:55:51;;;;;;;4.65;4.25;;;;;;;-144.47;100.00;61586.06;5070741;28;20051;-79
2022/05/12 10:58:38;;;;;;;7.35;4.18;;;;;;;-144.47;100.00;61586.06;5072902;28;20043;-79
2022/05/12 11:01:17;;;;;;;10.57;4.55;;;;;;;-144.47;100.00;61586.06;5071625;28;20028;-79
2022/05/12 11:03:57;;;;;;;5.70;4.53;;;;;;;23.42;100.00;61586.06;5075871;28;20046;-79
2022/05/12 11:06:33;;;;;;;11.10;4.07;;;;;;;-144.47;100.00;61586.06;5066878;28;20380;-79
2022/05/12 11:09:11;;;;;;;4.97;4.47;;;;;;;-144.47;100.00;61586.06;5062502;28;20029;-79
2022/05/12 11:11:49;;;;;;;5.40;4.32;;;;;;;23.59;100.00;82096.94;5062881;28;20029;-79
2022/05/12 11:14:33;;;;;;;6.60;5.07;;;;;;;-144.47;100.00;61586.06;5072970;28;20056;-78
2022/05/12 11:17:19;;;;;;;7.70;4.22;;;;;;;187.31;100.00;61586.06;5070884;28;20036;-77
2022/05/12 11:20:28;;;;;;;5.63;3.95;;;;;;;62.74;100.00;61586.06;5065711;28;20056;-88
2022/05/12 11:23:09;;;;;;;7.72;4.30;;;;;;;62.74;100.00;61586.06;5072889;28;20431;-84
2022/05/12 11:25:40;;;;;;;6.90;4.40;;;;;;;104.25;100.00;61586.06;5084534;28;20055;-87
2022/05/12 11:31:37;;;;;;;6.95;4.30;;;;;;;62.74;100.00;61586.06;5064254;28;20039;-87
2022/05/12 11:34:11;;;;;;;6.15;4.32;;;;;;;62.74;100.00;61586.06;5075397;28;20101;-87
2022/05/12 11:36:39;;;;;;;4.53;4.13;;;;;;;62.74;100.00;61586.06;5076238;28;20028;-87
2022/05/12 11:39:27;;;;;;;6.78;4.05;;;;;;;62.74;100.00;61586.06;5084452;28;20034;-87